Time;durP1;ratioP1;P1;durP2;ratioP2;P2;SDS_P1;SDS_P2;PMS_P1;PMS_P2;Temp;Humidity;BMP_temperature;BMP_pressure;BME280_temperature;BME280_humidity;BME280_pressure;Samples;Min_cycle;Max_cycle;Signal;HPM_P1;HPM_P2
2022/07/01 00:02:25;;;;;;;0.95;0.60;;;;;;;-148.56;100.00;61375.16;5008096;28;20037;-31
2022/07/01 00:04:50;;;;;;;0.40;0.40;;;;;;;-148.56;100.00;61375.16;5007354;28;20650;-33
2022/07/01 00:07:16;;;;;;;0.70;0.65;;;;;;;-148.56;100.00;61375.16;5005215;28;20038;-34
2022/07/01 00:09:42;;;;;;;0.60;0.60;;;;;;;-148.56;100.00;61375.16;5008096;28;20029;-33
2022/07/01 00:12:07;;;;;;;0.50;0.50;;;;;;;-148.56;100.00;61375.16;5003459;28;20056;-33
2022/07/01 00:14:32;;;;;;;0.50;0.50;;;;;;;-148.56;100.00;61375.16;5005806;28;20037;-36
2022/07/01 00:16:58;;;;;;;0.52;0.40;;;;;;;-148.56;100.00;61375.16;5006272;28;20906;-31
2022/07/01 00:19:24;;;;;;;0.55;0.50;;;;;;;-148.56;100.00;61375.16;5006508;28;20107;-35
2022/07/01 00:21:50;;;;;;;0.30;0.30;;;;;;;-148.56;100.00;61375.16;5001928;28;20909;-36
2022/07/01 00:24:15;;;;;;;0.50;0.50;;;;;;;-148.56;100.00;61375.16;5007350;28;20063;-34
2022/07/01 00:26:41;;;;;;;0.50;0.50;;;;;;;-148.56;100.00;61375.16;5002686;28;20040;-30
2022/07/01 00:29:06;;;;;;;0.52;0.50;;;;;;;-148.56;100.00;61375.16;5006966;28;20504;-34
2022/07/01 00:31:31;;;;;;;0.43;0.43;;;;;;;-148.56;100.00;61375.16;5009254;28;20044;-34
2022/07/01 00:33:57;;;;;;;0.40;0.40;;;;;;;-148.56;100.00;61375.16;5008103;28;20029;-37
2022/07/01 00:36:22;;;;;;;0.77;0.40;;;;;;;-148.56;100.00;61375.16;5006360;28;20086;-35
2022/07/01 00:38:48;;;;;;;0.55;0.50;;;;;;;-148.56;100.00;61375.16;5003294;28;20376;-34
2022/07/01 00:41:13;;;;;;;0.50;0.50;;;;;;;-148.56;100.00;61375.16;5007143;28;20029;-36
2022/07/01 00:43:39;;;;;;;0.30;0.30;;;;;;;-148.56;100.00;61375.16;5008302;28;20698;-32
2022/07/01 00:46:05;;;;;;;0.57;0.50;;;;;;;-148.56;100.00;61375.16;5006063;28;20026;-34
2022/07/01 00:48:31;;;;;;;0.40;0.40;;;;;;;-148.56;100.00;61375.16;5005858;28;20500;-36
2022/07/01 00:50:57;;;;;;;0.40;0.40;;;;;;;-148.56;100.00;61375.16;5006357;28;20053;-34
2022/07/01 00:53:22;;;;;;;0.50;0.50;;;;;;;-148.56;100.00;61375.16;5000906;28;20042;-34
2022/07/01 00:55:48;;;;;;;0.40;0.40;;;;;;;-148.56;100.00;61375.16;5008538;28;20080;-37
2022/07/01 00:58:14;;;;;;;0.30;0.30;;;;;;;-148.56;100.00;61375.16;5006719;28;20033;-36
2022/07/01 01:00:39;;;;;;;0.40;0.40;;;;;;;-148.56;100.00;61375.16;5008102;28;20160;-34
2022/07/01 01:03:06;;;;;;;0.40;0.40;;;;;;;-148.56;100.00;61375.16;5006999;28;20032;-32
2022/07/01 01:05:32;;;;;;;0.40;0.40;;;;;;;-148.56;100.00;61375.16;5005664;28;20669;-34
2022/07/01 01:07:57;;;;;;;0.50;0.50;;;;;;;-148.56;100.00;61375.16;5005550;28;20021;-33
2022/07/01 01:10:23;;;;;;;1.20;0.40;;;;;;;-148.56;100.00;61375.16;5003955;28;20583;-36
2022/07/01 01:12:49;;;;;;;0.43;0.40;;;;;;;-148.56;100.00;61375.16;5008576;28;20069;-33
2022/07/01 01:15:18;;;;;;;0.40;0.40;;;;;;;-148.56;100.00;61375.16;5003217;28;21487;-34
2022/07/01 01:17:43;;;;;;;0.30;0.30;;;;;;;-148.56;100.00;61375.16;5007428;28;20163;-33
2022/07/01 01:20:14;;;;;;;0.57;0.50;;;;;;;-148.56;100.00;61375.16;5010839;28;20033;-36
2022/07/01 01:22:40;;;;;;;0.57;0.40;;;;;;;-148.56;100.00;61375.16;5010828;28;20037;-38
2022/07/01 01:25:05;;;;;;;0.40;0.40;;;;;;;-148.56;100.00;61375.16;5007454;28;20830;-36
2022/07/01 01:27:31;;;;;;;0.43;0.43;;;;;;;-148.56;100.00;61375.16;5009559;28;20034;-37
2022/07/01 01:29:56;;;;;;;0.40;0.40;;;;;;;-148.56;100.00;61375.16;5007082;28;20044;-34
2022/07/01 01:32:22;;;;;;;0.50;0.50;;;;;;;-148.56;100.00;61375.16;5009904;28;20042;-33
2022/07/01 01:34:47;;;;;;;0.30;0.30;;;;;;;-148.56;100.00;61375.16;5009923;28;20285;-37
2022/07/01 01:37:12;;;;;;;0.45;0.45;;;;;;;-148.56;100.00;61375.16;5012408;28;20510;-33
2022/07/01 01:39:38;;;;;;;0.30;0.30;;;;;;;-148.56;100.00;61375.16;5009552;28;20055;-30
2022/07/01 01:42:05;;;;;;;0.65;0.43;;;;;;;-148.56;100.00;61375.16;5010278;28;20034;-35
2022/07/01 01:44:31;;;;;;;0.93;0.57;;;;;;;-148.56;100.00;61375.16;5008719;28;20124;-32
2022/07/01 01:46:56;;;;;;;0.32;0.32;;;;;;;-148.56;100.00;61375.16;5012568;28;20108;-32
2022/07/01 01:49:21;;;;;;;0.40;0.40;;;;;;;-148.56;100.00;61375.16;5006705;28;20033;-35
2022/07/01 01:51:47;;;;;;;0.63;0.50;;;;;;;-148.56;100.00;61375.16;5004773;28;20048;-32
2022/07/01 01:54:12;;;;;;;0.40;0.40;;;;;;;-148.56;100.00;61375.16;5007358;28;20034;-36
2022/07/01 01:56:38;;;;;;;0.38;0.38;;;;;;;-148.56;100.00;61375.16;5010595;28;20052;-38
2022/07/01 01:59:04;;;;;;;0.30;0.30;;;;;;;-148.56;100.00;61375.16;5012021;28;21108;-32
2022/07/01 02:01:30;;;;;;;0.50;0.50;;;;;;;-148.56;100.00;61375.16;5005632;28;20040;-35
2022/07/01 02:03:56;;;;;;;0.50;0.50;;;;;;;-148.56;100.00;61375.16;5009880;28;20033;-37
2022/07/01 02:06:21;;;;;;;0.40;0.40;;;;;;;-148.56;100.00;61375.16;5010833;28;20037;-37
2022/07/01 02:08:48;;;;;;;0.50;0.50;;;;;;;-148.56;100.00;61375.16;5010549;28;20041;-30
2022/07/01 02:11:13;;;;;;;0.30;0.30;;;;;;;-148.56;100.00;61375.16;5008564;28;20052;-37
2022/07/01 02:13:39;;;;;;;0.40;0.40;;;;;;;-148.56;100.00;61375.16;5007497;28;22015;-33
2022/07/01 02:16:04;;;;;;;0.40;0.30;;;;;;;-148.56;100.00;61375.16;5007897;28;20034;-34
2022/07/01 02:18:30;;;;;;;0.30;0.30;;;;;;;-148.56;100.00;61375.16;5006373;28;20471;-35
2022/07/01 02:20:56;;;;;;;0.40;0.40;;;;;;;-148.56;100.00;61375.16;5009820;28;20064;-36
2022/07/01 02:23:21;;;;;;;0.52;0.52;;;;;;;-148.56;100.00;61375.16;5006229;28;20500;-33
2022/07/01 02:25:47;;;;;;;0.28;0.28;;;;;;;-148.56;100.00;61375.16;5008069;28;20033;-36
2022/07/01 02:28:12;;;;;;;0.30;0.30;;;;;;;-148.56;100.00;61375.16;5005532;28;20029;-33
2022/07/01 02:30:38;;;;;;;0.40;0.30;;;;;;;-148.56;100.00;61375.16;5006872;28;20535;-35
2022/07/01 02:33:05;;;;;;;0.20;0.20;;;;;;;-148.56;100.00;61375.16;5005801;28;20117;-34
2022/07/01 02:35:31;;;;;;;0.40;0.40;;;;;;;-148.56;100.00;61375.16;5008931;28;20021;-37
2022/07/01 02:37:56;;;;;;;0.30;0.30;;;;;;;-148.56;100.00;61375.16;5009124;28;20036;-32
2022/07/01 02:40:22;;;;;;;0.30;0.30;;;;;;;-148.56;100.00;61375.16;5009831;28;20030;-36
2022/07/01 02:42:47;;;;;;;0.30;0.30;;;;;;;-148.56;100.00;61375.16;5009316;28;20053;-32
2022/07/01 02:45:12;;;;;;;0.30;0.30;;;;;;;-148.56;100.00;61375.16;5005183;28;20657;-33
2022/07/01 02:47:38;;;;;;;0.40;0.40;;;;;;;-148.56;100.00;61375.16;5013994;28;20382;-39
2022/07/01 02:50:05;;;;;;;0.30;0.30;;;;;;;-148.56;100.00;61375.16;5006913;28;20036;-36
2022/07/01 02:52:30;;;;;;;0.30;0.30;;;;;;;-148.56;100.00;61375.16;5006695;28;20026;-36
2022/07/01 02:54:56;;;;;;;0.20;0.20;;;;;;;-148.56;100.00;61375.16;5007984;28;20033;-30
2022/07/01 02:57:22;;;;;;;0.50;0.50;;;;;;;-148.56;100.00;61375.16;5009291;28;20025;-33
2022/07/01 02:59:47;;;;;;;0.30;0.30;;;;;;;-148.56;100.00;61375.16;5010978;28;20561;-34
2022/07/01 03:02:12;;;;;;;0.30;0.30;;;;;;;-148.56;100.00;61375.16;5009708;28;20029;-39
2022/07/01 03:04:38;;;;;;;0.45;0.40;;;;;;;-148.56;100.00;61375.16;5008118;28;20120;-33
2022/07/01 03:07:03;;;;;;;0.40;0.40;;;;;;;-148.56;100.00;61375.16;5009705;28;20061;-33
2022/07/01 03:09:29;;;;;;;0.40;0.40;;;;;;;-148.56;100.00;61375.16;5009783;28;20044;-37
2022/07/01 03:11:54;;;;;;;0.38;0.38;;;;;;;-148.56;100.00;61375.16;5010103;28;20040;-33
2022/07/01 03:14:20;;;;;;;0.32;0.30;;;;;;;-148.56;100.00;61375.16;5008787;28;20034;-33
2022/07/01 03:16:47;;;;;;;0.40;0.40;;;;;;;-148.56;100.00;61375.16;5010468;28;20769;-37
2022/07/01 03:19:13;;;;;;;0.30;0.30;;;;;;;-148.56;100.00;61375.16;5013485;28;21006;-33
2022/07/01 03:21:38;;;;;;;0.30;0.30;;;;;;;-148.56;100.00;61375.16;5007311;28;20112;-34
2022/07/01 03:24:03;;;;;;;0.32;0.32;;;;;;;-148.56;100.00;61375.16;5006935;28;20025;-34
2022/07/01 03:26:29;;;;;;;0.40;0.30;;;;;;;-148.56;100.00;61375.16;5006952;28;20033;-31
2022/07/01 03:28:54;;;;;;;0.30;0.20;;;;;;;-148.56;100.00;61375.16;5009071;28;20025;-38
2022/07/01 03:31:20;;;;;;;0.30;0.30;;;;;;;-148.56;100.00;61375.16;5009003;28;20802;-31
2022/07/01 03:33:45;;;;;;;0.30;0.30;;;;;;;-148.56;100.00;61375.16;5012007;28;20043;-33
2022/07/01 03:36:10;;;;;;;0.30;0.30;;;;;;;-148.56;100.00;61375.16;5008106;28;20033;-36
2022/07/01 03:38:36;;;;;;;0.30;0.30;;;;;;;-148.56;100.00;61375.16;5010160;28;20606;-33
2022/07/01 03:41:01;;;;;;;0.45;0.40;;;;;;;-148.56;100.00;61375.16;5009972;28;20029;-33
2022/07/01 03:43:27;;;;;;;0.30;0.30;;;;;;;-148.56;100.00;61375.16;5009013;28;20809;-32
2022/07/01 03:45:52;;;;;;;0.55;0.40;;;;;;;-148.56;100.00;61375.16;5011376;28;20108;-32
2022/07/01 03:48:17;;;;;;;0.45;0.40;;;;;;;-148.56;100.00;61375.16;5008308;28;20029;-39
2022/07/01 03:50:43;;;;;;;0.38;0.38;;;;;;;-148.56;100.00;61375.16;5006564;28;20018;-36
2022/07/01 03:55:52;;;;;;;0.40;0.40;;;;;;;-148.56;100.00;61375.16;5005527;28;20111;-37
2022/07/01 03:58:18;;;;;;;0.40;0.40;;;;;;;-148.56;100.00;61375.16;5009231;28;20491;-34
2022/07/01 04:00:43;;;;;;;0.30;0.30;;;;;;;-148.56;100.00;61375.16;5010270;28;20049;-35
2022/07/01 04:03:08;;;;;;;0.30;0.30;;;;;;;-148.56;100.00;61375.16;5007329;28;20029;-33
2022/07/01 04:05:35;;;;;;;0.40;0.40;;;;;;;-148.56;100.00;61375.16;5008114;28;20832;-31
2022/07/01 04:08:03;;;;;;;0.40;0.30;;;;;;;-148.56;100.00;61375.16;5006351;28;20119;-37
2022/07/01 04:10:35;;;;;;;0.30;0.30;;;;;;;-148.56;100.00;61375.16;5002603;28;20346;-35
2022/07/01 04:13:01;;;;;;;0.43;0.30;;;;;;;-148.56;100.00;61375.16;5009336;28;20053;-34
2022/07/01 04:15:26;;;;;;;0.40;0.40;;;;;;;-148.56;100.00;61375.16;5008505;28;20120;-32
2022/07/01 04:17:52;;;;;;;1.00;0.60;;;;;;;-148.56;100.00;61375.16;5009770;28;20115;-36
2022/07/01 04:20:17;;;;;;;0.30;0.30;;;;;;;-148.56;100.00;61375.16;5003577;28;20033;-37
2022/07/01 04:22:43;;;;;;;0.30;0.30;;;;;;;-148.56;100.00;61375.16;5006929;28;20029;-32
2022/07/01 04:25:08;;;;;;;0.40;0.40;;;;;;;-148.56;100.00;61375.16;5006943;28;20022;-38
2022/07/01 04:27:34;;;;;;;0.30;0.30;;;;;;;-148.56;100.00;61375.16;5008209;28;20029;-34
2022/07/01 04:30:02;;;;;;;0.30;0.30;;;;;;;-148.56;100.00;61375.16;5006237;28;20028;-38
2022/07/01 04:32:27;;;;;;;0.30;0.30;;;;;;;-148.56;100.00;61375.16;5006550;28;20060;-39
2022/07/01 04:34:53;;;;;;;0.40;0.40;;;;;;;-148.56;100.00;61375.16;5005816;28;20668;-33
2022/07/01 04:37:19;;;;;;;0.40;0.40;;;;;;;-148.56;100.00;61375.16;5009055;28;20065;-40
2022/07/01 04:39:45;;;;;;;0.40;0.40;;;;;;;-148.56;100.00;61375.16;5003876;28;21080;-40
2022/07/01 04:42:10;;;;;;;0.30;0.30;;;;;;;-148.56;100.00;61375.16;5006325;28;20121;-36
2022/07/01 04:44:36;;;;;;;0.30;0.30;;;;;;;-148.56;100.00;61375.16;5006202;28;20608;-35
2022/07/01 04:47:02;;;;;;;0.30;0.30;;;;;;;-148.56;100.00;61375.16;5009167;28;20090;-33
2022/07/01 04:49:28;;;;;;;0.30;0.30;;;;;;;-148.56;100.00;61375.16;5007830;28;20375;-33
2022/07/01 04:51:53;;;;;;;0.40;0.40;;;;;;;-148.56;100.00;61375.16;5003054;28;20029;-37
2022/07/01 04:54:19;;;;;;;0.30;0.30;;;;;;;-148.56;100.00;61375.16;5008877;28;20037;-36
2022/07/01 04:56:44;;;;;;;0.20;0.20;;;;;;;-148.56;100.00;61375.16;5010571;28;20029;-37
2022/07/01 04:59:11;;;;;;;0.32;0.32;;;;;;;-148.56;100.00;61375.16;5004752;28;20030;-31
2022/07/01 05:01:36;;;;;;;0.40;0.40;;;;;;;-148.56;100.00;61375.16;5006267;28;20182;-34
2022/07/01 05:04:02;;;;;;;0.40;0.30;;;;;;;-148.56;100.00;61375.16;5004527;28;20619;-36
2022/07/01 05:06:27;;;;;;;0.30;0.30;;;;;;;-148.56;100.00;61375.16;5009095;28;20447;-35
2022/07/01 05:08:53;;;;;;;0.20;0.20;;;;;;;-148.56;100.00;61375.16;5007630;28;20029;-35
2022/07/01 05:11:18;;;;;;;0.52;0.40;;;;;;;-148.56;100.00;61375.16;5006838;28;20069;-38
2022/07/01 05:13:43;;;;;;;0.30;0.30;;;;;;;-148.56;100.00;61375.16;5005457;28;20099;-36
2022/07/01 05:16:09;;;;;;;0.40;0.40;;;;;;;-148.56;100.00;61375.16;5007623;28;20056;-34
2022/07/01 05:24:05;;;;;;;0.38;0.38;;;;;;;-148.56;100.00;61375.16;5006200;28;20068;-35
2022/07/01 05:26:31;;;;;;;0.55;0.40;;;;;;;-148.56;100.00;61375.16;5003052;28;20021;-36
2022/07/01 05:28:56;;;;;;;0.30;0.30;;;;;;;-148.56;100.00;61375.16;5007243;28;20904;-37
2022/07/01 05:31:22;;;;;;;0.45;0.43;;;;;;;-148.56;100.00;61375.16;5002869;28;20083;-34
2022/07/01 05:33:47;;;;;;;0.40;0.40;;;;;;;-148.56;100.00;61375.16;5004645;28;20061;-37
2022/07/01 05:36:13;;;;;;;0.30;0.30;;;;;;;-148.56;100.00;61375.16;5008601;28;20742;-34
2022/07/01 05:38:38;;;;;;;0.30;0.30;;;;;;;-148.56;100.00;61375.16;5006379;28;20017;-38
2022/07/01 05:41:04;;;;;;;0.40;0.30;;;;;;;-148.56;100.00;61375.16;5005289;28;20025;-33
2022/07/01 05:43:30;;;;;;;0.20;0.20;;;;;;;-148.56;100.00;61375.16;5006782;28;20069;-36
2022/07/01 05:45:55;;;;;;;0.43;0.38;;;;;;;-148.56;100.00;61375.16;5006335;28;20029;-37
2022/07/01 05:48:21;;;;;;;0.25;0.25;;;;;;;-148.56;100.00;61375.16;5009106;28;20029;-36
2022/07/01 05:50:47;;;;;;;0.20;0.20;;;;;;;-148.56;100.00;61375.16;5004047;28;20037;-33
2022/07/01 05:53:12;;;;;;;0.30;0.30;;;;;;;-148.56;100.00;61375.16;5001725;28;20044;-37
2022/07/01 05:55:38;;;;;;;0.47;0.30;;;;;;;-148.56;100.00;61375.16;5006575;28;20025;-37
2022/07/01 05:58:03;;;;;;;0.43;0.20;;;;;;;-148.56;100.00;61375.16;5008132;28;20032;-34
2022/07/01 06:00:29;;;;;;;0.22;0.22;;;;;;;-148.56;100.00;61375.16;5008332;28;20030;-34
2022/07/01 06:02:54;;;;;;;0.30;0.30;;;;;;;-148.56;100.00;61375.16;5002056;28;20617;-37
2022/07/01 06:05:20;;;;;;;0.43;0.32;;;;;;;-148.56;100.00;61375.16;5009989;28;20791;-34
2022/07/01 06:07:45;;;;;;;0.30;0.30;;;;;;;-148.56;100.00;61375.16;5013767;28;20025;-34
2022/07/01 06:10:10;;;;;;;0.30;0.30;;;;;;;-148.56;100.00;61375.16;5012261;28;20042;-39
2022/07/01 06:12:39;;;;;;;0.20;0.20;;;;;;;-148.56;100.00;61375.16;5007839;28;20136;-34
2022/07/01 06:15:09;;;;;;;0.30;0.30;;;;;;;-148.56;100.00;61375.16;5007093;28;20033;-37
2022/07/01 06:17:35;;;;;;;0.30;0.28;;;;;;;-148.56;100.00;61375.16;5011345;28;20524;-33
2022/07/01 06:20:00;;;;;;;0.20;0.20;;;;;;;-148.56;100.00;61375.16;5006764;28;20030;-37
2022/07/01 06:22:26;;;;;;;0.50;0.38;;;;;;;-148.56;100.00;61375.16;5005891;28;20021;-34
2022/07/01 06:24:51;;;;;;;0.93;0.47;;;;;;;-148.56;100.00;61375.16;5008526;28;20021;-36
2022/07/01 06:27:17;;;;;;;0.40;0.40;;;;;;;-148.56;100.00;61375.16;5002498;28;20498;-36
2022/07/01 06:29:42;;;;;;;0.20;0.20;;;;;;;-148.56;100.00;61375.16;5009098;28;20815;-32
2022/07/01 06:32:08;;;;;;;1.15;0.20;;;;;;;-148.56;100.00;61375.16;5007293;28;20084;-37
2022/07/01 06:34:34;;;;;;;0.30;0.30;;;;;;;-148.56;100.00;61375.16;5009881;28;20865;-37
2022/07/01 06:37:03;;;;;;;0.25;0.25;;;;;;;-148.56;100.00;61375.16;5005833;28;20809;-38
2022/07/01 06:39:28;;;;;;;0.30;0.30;;;;;;;-148.56;100.00;61375.16;5009257;28;20045;-33
2022/07/01 06:41:54;;;;;;;0.47;0.40;;;;;;;-148.56;100.00;61375.16;5011975;28;20778;-37
2022/07/01 06:44:20;;;;;;;0.22;0.20;;;;;;;-148.56;100.00;61375.16;5008701;28;20809;-30
2022/07/01 06:46:45;;;;;;;0.40;0.40;;;;;;;-148.56;100.00;61375.16;5007898;28;21109;-33
2022/07/01 06:49:11;;;;;;;1.85;0.40;;;;;;;-148.56;100.00;61375.16;5009014;28;20021;-36
2022/07/01 06:51:36;;;;;;;0.40;0.30;;;;;;;-148.56;100.00;61375.16;5008718;28;20679;-34
2022/07/01 06:54:02;;;;;;;0.30;0.30;;;;;;;-148.56;100.00;61375.16;5005181;28;20030;-33
2022/07/01 06:56:27;;;;;;;0.30;0.30;;;;;;;-148.56;100.00;61375.16;5012300;28;20029;-37
2022/07/01 06:58:53;;;;;;;0.47;0.40;;;;;;;-148.56;100.00;61375.16;4987539;28;20030;-43
2022/07/01 07:01:18;;;;;;;0.30;0.30;;;;;;;-148.56;100.00;61375.16;4987759;28;20307;-39
2022/07/01 07:03:44;;;;;;;0.30;0.30;;;;;;;-148.56;100.00;61375.16;4987370;28;20028;-33
2022/07/01 07:06:09;;;;;;;0.30;0.30;;;;;;;-148.56;100.00;61375.16;4983932;28;20044;-37
2022/07/01 07:08:34;;;;;;;0.50;0.30;;;;;;;-148.56;100.00;61375.16;4990395;28;20025;-36
2022/07/01 07:11:00;;;;;;;0.30;0.30;;;;;;;-148.56;100.00;61375.16;4992398;28;20392;-37
2022/07/01 07:13:25;;;;;;;0.22;0.22;;;;;;;-148.56;100.00;61375.16;4987531;28;20036;-37
2022/07/01 07:15:51;;;;;;;0.30;0.30;;;;;;;-148.56;100.00;61375.16;4989433;28;20044;-34
2022/07/01 07:18:16;;;;;;;0.40;0.40;;;;;;;-148.56;100.00;61375.16;4988397;28;20048;-37
2022/07/01 07:20:42;;;;;;;0.28;0.28;;;;;;;-148.56;100.00;61375.16;4993504;28;20047;-39
2022/07/01 07:23:07;;;;;;;1.00;0.30;;;;;;;-148.56;100.00;61375.16;5004047;28;20075;-34
2022/07/01 07:25:32;;;;;;;0.30;0.30;;;;;;;-148.56;100.00;61375.16;5009588;28;20026;-34
2022/07/01 07:27:58;;;;;;;0.40;0.40;;;;;;;-148.56;100.00;61375.16;5007041;28;20721;-35
2022/07/01 07:30:23;;;;;;;0.30;0.30;;;;;;;-148.56;100.00;61375.16;5010870;28;20493;-31
2022/07/01 07:32:49;;;;;;;0.30;0.30;;;;;;;-148.56;100.00;61375.16;5008598;28;20025;-31
2022/07/01 07:35:14;;;;;;;0.20;0.20;;;;;;;-148.56;100.00;61375.16;5007397;28;20037;-36
2022/07/01 07:37:40;;;;;;;0.30;0.30;;;;;;;-148.56;100.00;61375.16;5004911;28;20809;-35
2022/07/01 07:40:07;;;;;;;0.28;0.28;;;;;;;-148.56;100.00;61375.16;5007120;28;20033;-34
2022/07/01 07:42:33;;;;;;;0.30;0.30;;;;;;;-148.56;100.00;61375.16;5009381;28;20090;-36
2022/07/01 07:44:58;;;;;;;0.13;0.10;;;;;;;-148.56;100.00;61375.16;5009623;28;20076;-37
2022/07/01 07:47:24;;;;;;;0.20;0.20;;;;;;;-148.56;100.00;61375.16;5007482;28;20029;-34
2022/07/01 07:49:49;;;;;;;0.30;0.30;;;;;;;-148.56;100.00;61375.16;5005355;28;20376;-39
2022/07/01 07:52:14;;;;;;;0.20;0.20;;;;;;;-148.56;100.00;61375.16;5010311;28;20045;-35
2022/07/01 07:54:40;;;;;;;0.30;0.30;;;;;;;-148.56;100.00;61375.16;5007032;28;20022;-40
2022/07/01 07:57:06;;;;;;;0.30;0.30;;;;;;;-148.56;100.00;61375.16;5009754;28;20033;-33
2022/07/01 07:59:32;;;;;;;0.20;0.20;;;;;;;-148.56;100.00;61375.16;5011886;28;20136;-34
2022/07/01 08:01:57;;;;;;;0.22;0.22;;;;;;;-148.56;100.00;61375.16;5008939;28;20037;-36
2022/07/01 08:04:22;;;;;;;0.70;0.30;;;;;;;-148.56;100.00;61375.16;5001569;28;20025;-33
2022/07/01 08:06:48;;;;;;;0.20;0.20;;;;;;;-148.56;100.00;61375.16;5006034;28;20364;-34
2022/07/01 08:09:13;;;;;;;0.20;0.20;;;;;;;-148.56;100.00;61375.16;5011637;28;20033;-35
2022/07/01 08:11:39;;;;;;;0.30;0.30;;;;;;;-148.56;100.00;61375.16;5005832;28;20028;-35
2022/07/01 08:14:04;;;;;;;0.30;0.30;;;;;;;-148.56;100.00;61375.16;5004456;28;20017;-36
2022/07/01 08:16:30;;;;;;;0.30;0.30;;;;;;;-148.56;100.00;61375.16;5007913;28;20021;-38
2022/07/01 08:18:55;;;;;;;0.43;0.43;;;;;;;-148.56;100.00;61375.16;5006296;28;20018;-37
2022/07/01 08:21:21;;;;;;;0.20;0.20;;;;;;;-148.56;100.00;61375.16;4989491;28;20036;-38
2022/07/01 08:23:46;;;;;;;0.40;0.40;;;;;;;-148.56;100.00;61375.16;4966976;28;20160;-34
2022/07/01 08:26:14;;;;;;;0.30;0.30;;;;;;;-148.56;100.00;61375.16;4972382;28;20033;-36
2022/07/01 08:28:39;;;;;;;0.45;0.32;;;;;;;-148.56;100.00;61375.16;4974966;28;20740;-37
2022/07/01 08:31:04;;;;;;;0.35;0.25;;;;;;;-148.56;100.00;61375.16;4972589;28;22200;-38
2022/07/01 08:33:30;;;;;;;0.47;0.40;;;;;;;-148.56;100.00;61375.16;4967735;28;20869;-37
2022/07/01 08:35:55;;;;;;;0.30;0.30;;;;;;;-148.56;100.00;61375.16;4974257;28;20025;-40
2022/07/01 08:38:20;;;;;;;0.20;0.20;;;;;;;-148.56;100.00;61375.16;4962218;28;20068;-36
2022/07/01 08:40:46;;;;;;;0.20;0.20;;;;;;;-148.56;100.00;61375.16;4966744;28;20037;-32
2022/07/01 08:43:11;;;;;;;0.30;0.30;;;;;;;-148.56;100.00;61375.16;4966600;28;20381;-39
2022/07/01 08:45:37;;;;;;;0.40;0.30;;;;;;;-148.56;100.00;61375.16;4960223;28;20044;-38
2022/07/01 08:48:03;;;;;;;0.15;0.15;;;;;;;-148.56;100.00;61375.16;4965159;28;22147;-35
2022/07/01 08:50:30;;;;;;;0.30;0.30;;;;;;;-148.56;100.00;61375.16;4963664;28;23243;-37
2022/07/01 08:52:55;;;;;;;0.30;0.30;;;;;;;-148.56;100.00;61375.16;4958797;28;22081;-38
2022/07/01 08:55:21;;;;;;;0.20;0.20;;;;;;;-148.56;100.00;61375.16;4962969;28;20036;-36
2022/07/01 08:57:47;;;;;;;0.45;0.20;;;;;;;-148.56;100.00;61375.16;4971342;28;20032;-35
2022/07/01 09:00:12;;;;;;;0.35;0.35;;;;;;;-148.56;100.00;61375.16;4976418;28;20049;-31
2022/07/01 09:03:00;;;;;;;0.28;0.28;;;;;;;-148.56;100.00;61375.16;4973469;28;20030;-39
2022/07/01 09:05:26;;;;;;;0.30;0.30;;;;;;;-148.56;100.00;61375.16;4967483;28;20131;-33
2022/07/01 09:08:02;;;;;;;0.20;0.20;;;;;;;-148.56;100.00;61375.16;4968605;28;20034;-38
2022/07/01 09:10:30;;;;;;;0.30;0.30;;;;;;;-148.56;100.00;61375.16;4967948;28;20041;-35
2022/07/01 09:12:56;;;;;;;0.30;0.30;;;;;;;-148.56;100.00;61375.16;4960026;28;20141;-37
2022/07/01 09:15:31;;;;;;;0.30;0.30;;;;;;;-148.56;100.00;61375.16;4968570;28;20571;-39
2022/07/01 09:18:09;;;;;;;1.25;0.50;;;;;;;-148.56;100.00;61375.16;4969369;28;20041;-39
2022/07/01 09:20:35;;;;;;;0.25;0.25;;;;;;;-148.56;100.00;61375.16;4966556;28;20029;-34
2022/07/01 09:23:02;;;;;;;0.45;0.25;;;;;;;-148.56;100.00;61375.16;5006584;28;20036;-37
2022/07/01 09:25:29;;;;;;;0.20;0.20;;;;;;;-148.56;100.00;61375.16;5006487;28;20033;-33
2022/07/01 09:28:05;;;;;;;0.17;0.17;;;;;;;-148.56;100.00;61375.16;5008660;28;20034;-36
2022/07/01 09:30:32;;;;;;;0.20;0.20;;;;;;;-148.56;100.00;61375.16;5004751;28;20037;-33
2022/07/01 09:33:13;;;;;;;0.50;0.38;;;;;;;-148.56;100.00;61375.16;5005815;28;20028;-34
2022/07/01 09:35:39;;;;;;;0.20;0.20;;;;;;;-148.56;100.00;61375.16;5007746;28;20063;-32
2022/07/01 09:38:05;;;;;;;0.30;0.30;;;;;;;-148.56;100.00;61375.16;5004240;28;20124;-36
2022/07/01 09:40:55;;;;;;;0.30;0.30;;;;;;;-148.56;100.00;61375.16;5005678;28;20033;-36
2022/07/01 09:43:27;;;;;;;1.27;0.30;;;;;;;-148.56;100.00;61375.16;5006419;28;20779;-32
2022/07/01 09:45:56;;;;;;;0.20;0.20;;;;;;;-148.56;100.00;61375.16;5010811;28;20045;-35
2022/07/01 09:48:22;;;;;;;0.30;0.30;;;;;;;-148.56;100.00;61375.16;5010317;28;20167;-37
2022/07/01 09:50:48;;;;;;;0.20;0.20;;;;;;;-148.56;100.00;61375.16;5009505;28;20045;-33
2022/07/01 09:53:13;;;;;;;0.20;0.20;;;;;;;-148.56;100.00;61375.16;5008936;28;20030;-30
2022/07/01 09:55:39;;;;;;;0.30;0.20;;;;;;;-148.56;100.00;61375.16;5008449;28;20770;-33
2022/07/01 09:58:05;;;;;;;0.15;0.15;;;;;;;-148.56;100.00;61375.16;5009093;28;20842;-33
2022/07/01 10:00:31;;;;;;;0.20;0.20;;;;;;;-148.56;100.00;61375.16;5009484;28;20033;-34
2022/07/01 10:02:57;;;;;;;0.30;0.30;;;;;;;-148.56;100.00;61375.16;5006703;28;20979;-33
2022/07/01 10:05:24;;;;;;;0.20;0.20;;;;;;;-148.56;100.00;61375.16;5005532;28;20037;-30
2022/07/01 10:08:10;;;;;;;0.47;0.40;;;;;;;-148.56;100.00;61375.16;4993941;28;20460;-34
2022/07/01 10:10:47;;;;;;;0.30;0.30;;;;;;;-148.56;100.00;61375.16;5007493;28;20710;-32
2022/07/01 10:13:14;;;;;;;0.40;0.28;;;;;;;-148.56;100.00;61375.16;5007621;28;20025;-37
2022/07/01 10:15:41;;;;;;;0.30;0.30;;;;;;;-148.56;100.00;61375.16;5009841;28;20057;-33
2022/07/01 10:18:06;;;;;;;0.30;0.30;;;;;;;-148.56;100.00;61375.16;4996480;28;20120;-35
2022/07/01 10:20:31;;;;;;;0.30;0.30;;;;;;;-148.56;100.00;61375.16;4992853;28;20395;-33
2022/07/01 10:23:04;;;;;;;0.70;0.30;;;;;;;-148.56;100.00;61375.16;5008524;28;20042;-36
2022/07/01 10:25:52;;;;;;;0.40;0.40;;;;;;;-148.56;100.00;61375.16;5009716;28;20037;-38
2022/07/01 10:28:29;;;;;;;0.20;0.20;;;;;;;-148.56;100.00;61375.16;5008351;28;20034;-35
2022/07/01 10:31:01;;;;;;;0.43;0.30;;;;;;;-148.56;100.00;61375.16;5009538;28;20117;-34
2022/07/01 10:33:31;;;;;;;0.30;0.30;;;;;;;-148.56;100.00;61375.16;5006780;28;20095;-31
2022/07/01 10:36:16;;;;;;;0.30;0.22;;;;;;;-148.56;100.00;61375.16;5001793;28;20039;-36
2022/07/01 10:39:00;;;;;;;0.30;0.30;;;;;;;-148.56;100.00;61375.16;5008194;28;20033;-35
2022/07/01 10:41:26;;;;;;;0.40;0.35;;;;;;;-148.56;100.00;61375.16;5009190;28;20453;-36
2022/07/01 10:43:53;;;;;;;0.40;0.40;;;;;;;-148.56;100.00;61375.16;5006943;28;20022;-36
2022/07/01 10:46:44;;;;;;;0.50;0.50;;;;;;;-148.56;100.00;61375.16;5005713;28;20065;-35
2022/07/01 10:49:17;;;;;;;0.65;0.50;;;;;;;-148.56;100.00;61375.16;5009098;28;20029;-37
2022/07/01 10:51:47;;;;;;;0.40;0.40;;;;;;;-148.56;100.00;61375.16;5009668;28;20045;-39
2022/07/01 10:54:13;;;;;;;0.45;0.45;;;;;;;-148.56;100.00;61375.16;5007675;28;20033;-37
2022/07/01 10:56:39;;;;;;;0.40;0.40;;;;;;;-148.56;100.00;61375.16;5007004;28;20068;-35
2022/07/01 10:59:05;;;;;;;0.40;0.40;;;;;;;-148.56;100.00;61375.16;5007343;28;20595;-37
2022/07/01 11:01:30;;;;;;;0.60;0.50;;;;;;;-148.56;100.00;61375.16;5009917;28;20033;-38
2022/07/01 11:03:56;;;;;;;0.30;0.30;;;;;;;-148.56;100.00;61375.16;5006738;28;20903;-33
2022/07/01 11:06:21;;;;;;;0.40;0.40;;;;;;;-148.56;100.00;61375.16;5009504;28;20033;-38
2022/07/01 11:08:49;;;;;;;0.40;0.40;;;;;;;-148.56;100.00;61375.16;5009750;28;20033;-34
2022/07/01 11:11:15;;;;;;;0.88;0.38;;;;;;;-148.56;100.00;61375.16;5011011;28;20029;-38
2022/07/01 11:13:40;;;;;;;0.25;0.25;;;;;;;-148.56;100.00;61375.16;5004367;28;20032;-33
2022/07/01 11:16:05;;;;;;;0.38;0.38;;;;;;;-148.56;100.00;61375.16;4990283;28;20026;-36